createdAt,value
2017-04-10T00:00:46.148Z,97.07
2017-04-10T00:01:46.136Z,96.41
2017-04-10T00:02:46.128Z,96.12
2017-04-10T00:03:46.114Z,97.02
2017-04-10T00:04:46.108Z,96.79
2017-04-10T00:05:46.095Z,96.64
2017-04-10T00:06:46.086Z,96.5
2017-04-10T00:07:46.074Z,96.41
2017-04-10T00:08:46.068Z,96.55
2017-04-10T00:09:46.056Z,96.45
2017-04-10T00:10:46.043Z,96.45
2017-04-10T00:11:46.032Z,96.26
2017-04-10T00:12:46.022Z,96.36
2017-04-10T00:13:46.011Z,96.36
2017-04-10T00:14:46.002Z,97.02
2017-04-10T00:15:45.991Z,96.74
2017-04-10T00:16:45.979Z,96.83
2017-04-10T00:17:45.971Z,97.31
2017-04-10T00:18:45.959Z,96.83
2017-04-10T00:19:45.948Z,97.12
2017-04-10T00:20:45.939Z,97.31
2017-04-10T00:21:45.929Z,96.83
2017-04-10T00:22:45.926Z,97.02
2017-04-10T00:23:45.907Z,97.02
2017-04-10T00:24:45.900Z,96.93
2017-04-10T00:25:45.886Z,97.41
2017-04-10T00:26:45.878Z,97.02
2017-04-10T00:27:46.117Z,96.83
2017-04-10T00:28:45.552Z,96.93
2017-04-10T00:29:45.540Z,96.83
2017-04-10T00:30:45.838Z,96.83
2017-04-10T00:31:45.823Z,97.02
2017-04-10T00:32:46.064Z,97.12
2017-04-10T00:33:45.804Z,96.93
2017-04-10T00:34:45.792Z,97.22
2017-04-10T00:35:45.480Z,97.02
2017-04-10T00:36:45.466Z,96.83
2017-04-10T00:37:46.062Z,96.83
2017-04-10T00:38:45.750Z,97.12
2017-04-10T00:39:45.738Z,97.02
2017-04-10T00:40:45.735Z,96.93
2017-04-10T00:41:45.716Z,97.31
2017-04-10T00:42:45.959Z,97.31
2017-04-10T00:43:45.698Z,97.12
2017-04-10T00:44:45.688Z,97.02
2017-04-10T00:45:45.371Z,96.93
2017-04-10T00:46:45.666Z,96.93
2017-04-10T00:47:45.904Z,96.93
2017-04-10T00:48:45.645Z,96.74
2017-04-10T00:49:45.634Z,96.83
2017-04-10T00:50:45.622Z,96.93
2017-04-10T00:51:45.612Z,97.02
2017-04-10T00:52:45.954Z,97.31
2017-04-10T00:53:45.289Z,97.22
2017-04-10T00:54:45.584Z,96.83
2017-04-10T00:55:45.569Z,96.93
2017-04-10T00:56:45.563Z,96.83
2017-04-10T00:57:45.800Z,97.31
2017-04-10T00:58:45.537Z,97.41
2017-04-10T00:59:45.529Z,97.41
2017-04-10T01:00:45.516Z,97.22
2017-04-10T01:01:45.507Z,97.41
2017-04-10T01:02:45.799Z,97.02
2017-04-10T01:03:45.486Z,97.69
2017-04-10T01:04:45.476Z,97.6
2017-04-10T01:05:45.466Z,97.31
2017-04-10T01:06:45.452Z,97.6
2017-04-10T01:07:45.693Z,97.78
2017-04-10T01:08:45.431Z,97.6
2017-04-10T01:09:45.425Z,97.69
2017-04-10T01:10:45.410Z,97.5
2017-04-10T01:11:45.401Z,97.6
2017-04-10T01:12:45.642Z,97.69
2017-04-10T01:13:45.381Z,97.12
2017-04-10T01:14:45.370Z,97.78
2017-04-10T01:15:45.364Z,97.6
2017-04-10T01:16:45.346Z,97.69
2017-04-10T01:17:45.589Z,97.31
2017-04-10T01:18:45.326Z,97.5
2017-04-10T01:19:45.315Z,97.41
2017-04-10T01:20:45.303Z,97.69
2017-04-10T01:21:45.293Z,97.69
2017-04-10T01:22:45.589Z,97.5
2017-04-10T01:23:45.269Z,97.78
2017-04-10T01:24:45.260Z,97.88
2017-04-10T01:25:45.249Z,97.6
2017-04-10T01:26:45.241Z,97.69
2017-04-10T01:27:45.479Z,97.97
2017-04-10T01:28:45.218Z,97.69
2017-04-10T01:29:45.206Z,97.78
2017-04-10T01:30:45.196Z,97.6
2017-04-10T01:31:45.192Z,97.69
2017-04-10T01:32:45.476Z,97.6
2017-04-10T01:33:45.165Z,97.31
2017-04-10T01:34:45.152Z,97.41
2017-04-10T01:35:45.145Z,97.69
2017-04-10T01:36:44.828Z,97.69
2017-04-10T01:37:45.380Z,97.31
2017-04-10T01:38:45.109Z,97.6
2017-04-10T01:39:45.098Z,97.5
2017-04-10T01:40:45.089Z,97.6
2017-04-10T01:41:45.078Z,97.6
2017-04-10T01:42:45.065Z,97.6
2017-04-10T01:43:45.058Z,97.88
2017-04-10T01:44:45.045Z,97.6
2017-04-10T01:45:45.035Z,97.5
2017-04-10T01:46:45.023Z,97.5
2017-04-10T01:47:45.015Z,97.5
2017-04-10T01:48:45.002Z,97.6
2017-04-10T01:49:44.992Z,97.31
2017-04-10T01:50:44.981Z,97.5
2017-04-10T01:51:44.972Z,97.69
2017-04-10T01:52:44.962Z,97.69
2017-04-10T01:53:44.954Z,97.5
2017-04-10T01:54:44.938Z,97.41
2017-04-10T01:55:44.927Z,97.5
2017-04-10T01:56:44.916Z,97.41
2017-04-10T01:57:44.908Z,97.6
2017-04-10T01:58:44.894Z,97.78
2017-04-10T01:59:44.887Z,97.6
2017-04-10T02:00:44.872Z,97.88
2017-04-10T02:01:44.863Z,97.88
2017-04-10T02:02:44.548Z,97.78
2017-04-10T02:03:44.845Z,97.78
2017-04-10T02:04:44.526Z,97.88
2017-04-10T02:05:44.819Z,97.78
2017-04-10T02:06:44.809Z,97.78
2017-04-10T02:07:44.797Z,98.07
2017-04-10T02:08:44.787Z,97.69
2017-04-10T02:09:44.777Z,97.97
2017-04-10T02:10:44.767Z,97.6
2017-04-10T02:11:44.755Z,98.07
2017-04-10T02:12:44.747Z,97.78
2017-04-10T02:13:44.737Z,97.69
2017-04-10T02:14:44.724Z,97.88
2017-04-10T02:15:44.710Z,97.6
2017-04-10T02:16:44.700Z,97.6
2017-04-10T02:17:44.693Z,97.78
2017-04-10T02:18:44.680Z,97.78
2017-04-10T02:19:44.669Z,97.69
2017-04-10T02:20:44.657Z,97.6
2017-04-10T02:21:44.648Z,97.6
2017-04-10T02:22:44.647Z,97.6
2017-04-10T02:23:44.627Z,97.6
2017-04-10T02:24:44.615Z,97.78
2017-04-10T02:25:44.605Z,97.69
2017-04-10T02:26:44.613Z,97.88
2017-04-10T02:27:44.583Z,97.55
2017-04-10T02:28:44.571Z,97.69
2017-04-10T02:29:44.559Z,97.6
2017-04-10T02:30:44.550Z,97.83
2017-04-10T02:31:44.541Z,97.64
2017-04-10T02:32:44.529Z,97.74
2017-04-10T02:33:44.517Z,97.74
2017-04-10T02:34:44.507Z,97.74
2017-04-10T02:35:44.501Z,97.74
2017-04-10T02:36:44.486Z,97.55
2017-04-10T02:37:44.474Z,97.74
2017-04-10T02:38:44.463Z,97.74
2017-04-10T02:39:44.453Z,98.02
2017-04-10T02:40:44.442Z,98.02
2017-04-10T02:41:44.432Z,97.55
2017-04-10T02:42:44.421Z,97.92
2017-04-10T02:43:44.411Z,97.78
2017-04-10T02:44:44.404Z,97.55
2017-04-10T02:45:44.387Z,97.74
2017-04-10T02:46:44.378Z,97.92
2017-04-10T02:47:44.371Z,97.64
2017-04-10T02:48:44.357Z,97.92
2017-04-10T02:49:44.352Z,98.3
2017-04-10T02:50:44.333Z,98.49
2017-04-10T02:51:44.322Z,98.4
2017-04-10T02:52:44.311Z,98.3
2017-04-10T02:53:44.299Z,98.21
2017-04-10T02:54:44.289Z,98.11
2017-04-10T02:55:44.277Z,98.49
2017-04-10T02:56:44.266Z,98.11
2017-04-10T02:57:44.255Z,98.02
2017-04-10T02:58:44.245Z,97.55
2017-04-10T02:59:44.238Z,97.55
2017-04-10T03:00:44.224Z,97.55
2017-04-10T03:01:44.211Z,97.64
2017-04-10T03:02:44.201Z,97.74
2017-04-10T03:03:44.191Z,97.74
2017-04-10T03:04:44.181Z,97.55
2017-04-10T03:05:44.170Z,97.83
2017-04-10T03:06:44.184Z,97.74
2017-04-10T03:07:44.146Z,97.64
2017-04-10T03:08:44.146Z,98.21
2017-04-10T03:09:44.124Z,98.4
2017-04-10T03:10:44.154Z,98.21
2017-04-10T03:11:44.106Z,98.4
2017-04-10T03:12:44.096Z,98.4
2017-04-10T03:13:44.379Z,98.49
2017-04-10T03:14:44.068Z,98.4
2017-04-10T03:15:44.058Z,98.11
2017-04-10T03:16:44.046Z,98.3
2017-04-10T03:17:44.035Z,98.4
2017-04-10T03:18:44.275Z,98.3
2017-04-10T03:19:44.017Z,98.21
2017-04-10T03:20:44.003Z,98.02
2017-04-10T03:21:43.991Z,98.3
2017-04-10T03:22:43.979Z,98.3
2017-04-10T03:23:44.274Z,98.4
2017-04-10T03:24:43.957Z,98.97
2017-04-10T03:25:43.946Z,98.97
2017-04-10T03:26:43.935Z,98.97
2017-04-10T03:27:43.925Z,98.97
2017-04-10T03:28:44.267Z,98.87
2017-04-10T03:29:43.901Z,99.16
2017-04-10T03:30:43.893Z,98.87
2017-04-10T03:31:43.879Z,98.68
2017-04-10T03:32:43.870Z,98.78
2017-04-10T03:33:44.109Z,98.87
2017-04-10T03:34:43.847Z,98.68
2017-04-10T03:35:43.837Z,98.68
2017-04-10T03:36:43.825Z,98.87
2017-04-10T03:37:43.815Z,99.16
2017-04-10T03:38:44.053Z,99.06
2017-04-10T03:39:43.791Z,98.49
2017-04-10T03:40:43.779Z,98.49
2017-04-10T03:41:43.769Z,98.4
2017-04-10T03:42:43.757Z,98.3
2017-04-10T03:43:44.050Z,98.3
2017-04-10T03:44:43.740Z,98.4
2017-04-10T03:45:43.725Z,98.78
2017-04-10T03:46:43.712Z,98.78
2017-04-10T03:47:43.703Z,98.97
2017-04-10T03:48:43.941Z,98.97
2017-04-10T03:49:43.680Z,98.97
2017-04-10T03:50:43.669Z,98.97
2017-04-10T03:51:43.658Z,99.06
2017-04-10T03:52:43.344Z,98.87
2017-04-10T03:53:43.884Z,98.78
2017-04-10T03:54:43.624Z,98.97
2017-04-10T03:55:43.613Z,98.59
2017-04-10T03:56:43.603Z,98.59
2017-04-10T03:57:43.589Z,98.97
2017-04-10T03:58:43.868Z,98.68
2017-04-10T03:59:43.570Z,98.97
2017-04-10T04:00:43.558Z,98.59
2017-04-10T04:01:43.547Z,98.78
2017-04-10T04:02:43.534Z,98.4
2017-04-10T04:03:43.874Z,98.4
2017-04-10T04:04:43.513Z,98.4
2017-04-10T04:05:43.501Z,98.97
2017-04-10T04:06:43.491Z,98.4
2017-04-10T04:07:43.517Z,98.78
2017-04-10T04:08:43.767Z,99.06
2017-04-10T04:09:43.457Z,98.97
2017-04-10T04:10:43.446Z,98.87
2017-04-10T04:11:43.433Z,98.78
2017-04-10T04:12:43.423Z,99.16
2017-04-10T04:13:43.712Z,98.78
2017-04-10T04:14:43.401Z,99.16
2017-04-10T04:15:43.390Z,98.87
2017-04-10T04:16:43.379Z,98.68
2017-04-10T04:17:43.368Z,98.87
2017-04-10T04:18:43.612Z,98.68
2017-04-10T04:19:43.345Z,98.68
2017-04-10T04:20:43.337Z,98.68
2017-04-10T04:21:43.323Z,98.78
2017-04-10T04:22:43.311Z,98.97
2017-04-10T04:23:43.551Z,98.97
2017-04-10T04:24:42.987Z,98.78
2017-04-10T04:25:43.278Z,98.68
2017-04-10T04:26:43.269Z,98.78
2017-04-10T04:27:43.255Z,98.97
2017-04-10T04:28:43.499Z,98.68
2017-04-10T04:29:43.236Z,98.87
2017-04-10T04:30:43.223Z,98.68
2017-04-10T04:31:43.212Z,98.87
2017-04-10T04:32:43.204Z,98.97
2017-04-10T04:33:43.489Z,99.26
2017-04-10T04:34:43.179Z,99.11
2017-04-10T04:35:43.167Z,99.4
2017-04-10T04:36:43.157Z,99.11
2017-04-10T04:37:43.146Z,99.11
2017-04-10T04:38:43.435Z,99.11
2017-04-10T04:39:43.126Z,99.11
2017-04-10T04:40:43.118Z,99.87
2017-04-10T04:41:43.104Z,99.87
2017-04-10T04:42:43.091Z,99.68
2017-04-10T04:43:43.082Z,99.68
2017-04-10T04:44:43.070Z,99.49
2017-04-10T04:45:43.062Z,99.64
2017-04-10T04:46:43.049Z,99.73
2017-04-10T04:47:43.039Z,99.54
2017-04-10T04:48:43.028Z,99.35
2017-04-10T04:49:43.025Z,99.73
2017-04-10T04:50:43.009Z,99.73
2017-04-10T04:51:42.997Z,99.54
2017-04-10T04:52:42.988Z,99.88
2017-04-10T04:53:42.980Z,99.5
2017-04-10T04:54:42.971Z,99.69
2017-04-10T04:55:42.957Z,99.69
2017-04-10T04:56:42.947Z,99.99
2017-04-10T04:57:42.939Z,99.45
2017-04-10T04:58:42.930Z,99.45
2017-04-10T04:59:42.921Z,99.16
2017-04-10T05:00:42.912Z,98.83
2017-04-10T05:01:42.943Z,99.12
2017-04-10T05:02:42.894Z,99.31
2017-04-10T05:03:42.887Z,98.08
2017-04-10T05:04:42.877Z,98.22
2017-04-10T05:05:42.870Z,97.74
2017-04-10T05:06:42.859Z,97.65
2017-04-10T05:07:42.852Z,97.17
2017-04-10T05:08:42.844Z,96.36
2017-04-10T05:09:42.836Z,95.98
2017-04-10T05:10:42.829Z,96.08
2017-04-10T05:11:42.821Z,95.41
2017-04-10T05:12:42.819Z,95.08
2017-04-10T05:13:42.810Z,94.6
2017-04-10T05:14:42.801Z,94.22
2017-04-10T05:15:42.795Z,93.88
2017-04-10T05:16:42.786Z,92.36
2017-04-10T05:17:42.780Z,92.27
2017-04-10T05:18:42.777Z,91.93
2017-04-10T05:19:42.768Z,91.36
2017-04-10T05:20:42.762Z,90.5
2017-04-10T05:21:42.755Z,89.26
2017-04-10T05:22:42.750Z,88.45
2017-04-10T05:23:42.746Z,87.97
2017-04-10T05:24:42.740Z,86.25
2017-04-10T05:25:42.734Z,85.25
2017-04-10T05:26:42.729Z,82.67
2017-04-10T05:27:42.725Z,81.04
2017-04-10T05:28:42.719Z,80.13
2017-04-10T05:29:42.716Z,79.46
2017-04-10T05:30:42.716Z,79.17
2017-04-10T05:31:42.708Z,78.16
2017-04-10T05:32:42.702Z,77.21
2017-04-10T05:33:42.698Z,76.45
2017-04-10T05:34:42.697Z,75.91
2017-04-10T05:35:42.694Z,74.48
2017-04-10T05:36:42.688Z,73.99
2017-04-10T05:37:42.683Z,74.13
2017-04-10T05:38:42.684Z,73.08
2017-04-10T05:39:42.678Z,71.01
2017-04-10T05:40:42.675Z,71.01
2017-04-10T05:41:42.673Z,70.05
2017-04-10T05:42:42.670Z,69.7
2017-04-10T05:43:42.666Z,68.46
2017-04-10T05:44:42.665Z,68.11
2017-04-10T05:45:42.664Z,66.77
2017-04-10T05:46:42.663Z,66.13
2017-04-10T05:47:42.658Z,64.69
2017-04-10T05:48:42.661Z,64.59
2017-04-10T05:49:42.656Z,64.31
2017-04-10T05:50:42.351Z,64.15
2017-04-10T05:51:42.654Z,64.05
2017-04-10T05:52:42.653Z,62.26
2017-04-10T05:54:42.650Z,61.49
2017-04-10T05:55:42.653Z,60.85
2017-04-10T05:56:42.652Z,59.99
2017-04-10T05:57:42.650Z,59.64
2017-04-10T05:58:43.255Z,58.96
2017-04-10T05:59:42.650Z,57.84
2017-04-10T06:00:42.347Z,57.07
2017-04-10T06:01:42.650Z,56.43
2017-04-10T06:02:42.650Z,55.37
2017-04-10T06:03:42.653Z,54.89
2017-04-10T06:04:42.654Z,54.02
2017-04-10T06:05:42.655Z,53.96
2017-04-10T06:06:42.658Z,54.34
2017-04-10T06:07:42.657Z,53.19
2017-04-10T06:08:42.659Z,52.61
2017-04-10T06:09:42.917Z,52.25
2017-04-10T06:10:42.364Z,51.86
2017-04-10T06:11:42.670Z,51.7
2017-04-10T06:12:42.672Z,51.41
2017-04-10T06:13:42.671Z,51.12
2017-04-10T06:14:42.974Z,50.47
2017-04-10T06:15:42.683Z,50.09
2017-04-10T06:16:42.681Z,49.79
2017-04-10T06:17:42.686Z,48.66
2017-04-10T06:18:42.688Z,48.47
2017-04-10T06:19:43.043Z,48.47
2017-04-10T06:20:42.695Z,47.82
2017-04-10T06:21:42.699Z,47.53
2017-04-10T06:22:42.705Z,46.76
2017-04-10T06:23:42.711Z,46.59
2017-04-10T06:24:43.014Z,45.72
2017-04-10T06:25:42.417Z,45.45
2017-04-10T06:26:42.724Z,44.59
2017-04-10T06:27:42.727Z,44.01
2017-04-10T06:28:42.733Z,44.29
2017-04-10T06:29:42.989Z,44.49
2017-04-10T06:30:42.744Z,44.51
2017-04-10T06:31:42.751Z,44.42
2017-04-10T06:32:42.755Z,44.03
2017-04-10T06:33:42.762Z,43.18
2017-04-10T06:34:43.017Z,42.41
2017-04-10T06:35:42.774Z,41.93
2017-04-10T06:36:42.792Z,42.31
2017-04-10T06:37:42.787Z,42.02
2017-04-10T06:38:42.792Z,41.36
2017-04-10T06:39:43.052Z,40.98
2017-04-10T06:40:42.809Z,40.59
2017-04-10T06:41:42.813Z,40.88
2017-04-10T06:42:42.821Z,40.4
2017-04-10T06:43:42.830Z,40.5
2017-04-10T06:44:43.136Z,40.3
2017-04-10T06:45:42.842Z,40.2
2017-04-10T06:46:42.849Z,41
2017-04-10T06:47:42.860Z,40.71
2017-04-10T06:48:42.870Z,40.32
2017-04-10T06:49:43.226Z,40.53
2017-04-10T06:50:42.881Z,39.95
2017-04-10T06:51:42.889Z,39.39
2017-04-10T06:52:42.897Z,38.53
2017-04-10T06:53:42.907Z,38.04
2017-04-10T06:54:43.162Z,38.15
2017-04-10T06:55:42.921Z,38.06
2017-04-10T06:56:42.928Z,38.15
2017-04-10T06:57:42.936Z,37.96
2017-04-10T06:58:42.953Z,37.57
2017-04-10T06:59:43.205Z,37.69
2017-04-10T07:00:42.964Z,37.49
2017-04-10T07:01:42.972Z,37.71
2017-04-10T07:02:42.982Z,37.23
2017-04-10T07:03:42.988Z,35.4
2017-04-10T07:04:43.322Z,33.96
2017-04-10T07:05:43.009Z,34.44
2017-04-10T07:06:43.016Z,34.44
2017-04-10T07:07:43.026Z,34.35
2017-04-10T07:08:43.034Z,33.47
2017-04-10T07:09:43.295Z,33.47
2017-04-10T07:10:43.055Z,33.49
2017-04-10T07:11:43.073Z,33.49
2017-04-10T07:12:43.073Z,32.64
2017-04-10T07:13:43.089Z,32.75
2017-04-10T07:14:43.345Z,30.9
2017-04-10T07:15:43.103Z,31.01
2017-04-10T07:16:43.114Z,31.11
2017-04-10T07:17:43.123Z,30.43
2017-04-10T07:18:43.134Z,30.14
2017-04-10T07:19:43.443Z,29.85
2017-04-10T07:20:43.155Z,29.28
2017-04-10T07:21:43.167Z,29.47
2017-04-10T07:22:43.175Z,29.18
2017-04-10T07:23:43.187Z,29.66
2017-04-10T07:24:43.452Z,29.57
2017-04-10T07:25:43.208Z,29.46
2017-04-10T07:26:43.218Z,29.06
2017-04-10T07:27:43.230Z,28.58
2017-04-10T07:28:43.243Z,28.68
2017-04-10T07:29:43.504Z,28.49
2017-04-10T07:30:43.264Z,28.78
2017-04-10T07:31:43.274Z,29.26
2017-04-10T07:32:43.283Z,29.16
2017-04-10T07:33:43.295Z,29.38
2017-04-10T07:34:43.608Z,29.08
2017-04-10T07:35:43.322Z,28.59
2017-04-10T07:36:43.330Z,28.89
2017-04-10T07:37:43.341Z,27.82
2017-04-10T07:38:43.355Z,28.5
2017-04-10T07:39:43.618Z,28.59
2017-04-10T07:40:43.378Z,28.8
2017-04-10T07:41:43.391Z,28.7
2017-04-10T07:42:43.404Z,27.54
2017-04-10T07:43:43.414Z,27.65
2017-04-10T07:44:43.779Z,27.55
2017-04-10T07:45:43.440Z,27.75
2017-04-10T07:46:43.453Z,27.65
2017-04-10T07:47:43.469Z,27.93
2017-04-10T07:48:43.478Z,28.42
2017-04-10T07:49:43.742Z,27.93
2017-04-10T07:50:43.513Z,28.04
2017-04-10T07:51:43.520Z,27.64
2017-04-10T07:52:43.532Z,28.04
2017-04-10T07:53:43.545Z,26.97
2017-04-10T07:54:53.608Z,27.36
2017-04-10T07:55:43.576Z,27.75
2017-04-10T07:56:43.587Z,26.79
2017-04-10T07:57:43.599Z,26.5
2017-04-10T07:58:43.611Z,26.69
2017-04-10T07:59:43.625Z,26.51
2017-04-10T08:00:43.939Z,25.63
2017-04-10T08:01:43.654Z,25.53
2017-04-10T08:02:43.669Z,25.73
2017-04-10T08:03:43.678Z,26.79
2017-04-10T08:04:43.691Z,26.59
2017-04-10T08:05:43.952Z,26.69
2017-04-10T08:06:43.716Z,26.1
2017-04-10T08:07:43.727Z,26.39
2017-04-10T08:08:43.740Z,26.39
2017-04-10T08:09:43.751Z,26.29
2017-04-10T08:10:44.013Z,25.9
2017-04-10T08:11:43.777Z,26.28
2017-04-10T08:12:43.788Z,27.14
2017-04-10T08:13:43.801Z,27.43
2017-04-10T08:14:43.507Z,28.02
2017-04-10T08:15:44.076Z,27.53
2017-04-10T08:16:43.835Z,27.32
2017-04-10T08:17:43.847Z,27.7
2017-04-10T08:18:43.859Z,27.89
2017-04-10T08:19:43.872Z,28.66
2017-04-10T08:20:44.231Z,28.75
2017-04-10T08:21:43.893Z,29.33
2017-04-10T08:22:43.907Z,30
2017-04-10T08:23:43.912Z,30.29
2017-04-10T08:24:43.924Z,30.76
2017-04-10T08:25:43.882Z,31.05
2017-04-10T08:26:43.944Z,31.52
2017-04-10T08:27:43.954Z,31.6
2017-04-10T08:28:43.964Z,31.79
2017-04-10T08:29:43.974Z,32.28
2017-04-10T08:30:44.065Z,32.65
2017-04-10T08:31:43.688Z,33.41
2017-04-10T08:32:44.038Z,33.12
2017-04-10T08:33:44.009Z,34.45
2017-04-10T08:34:44.017Z,34.27
2017-04-10T08:35:44.276Z,35.12
2017-04-10T08:36:44.032Z,35.02
2017-04-10T08:37:44.040Z,34.91
2017-04-10T08:38:44.044Z,35.39
2017-04-10T08:39:44.051Z,36.05
2017-04-10T08:40:44.358Z,36.9
2017-04-10T08:41:44.066Z,37.1
2017-04-10T08:42:44.070Z,37.48
2017-04-10T08:43:44.072Z,37.77
2017-04-10T08:44:44.082Z,37.56
2017-04-10T08:45:44.336Z,37.85
2017-04-10T08:46:44.087Z,37.95
2017-04-10T08:47:44.092Z,38.04
2017-04-10T08:48:44.096Z,37.75
2017-04-10T08:49:43.795Z,37.93
2017-04-10T08:50:44.353Z,38.51
2017-04-10T08:51:43.804Z,38.99
2017-04-10T08:52:44.115Z,39.36
2017-04-10T08:53:44.124Z,39.45
2017-04-10T08:54:44.116Z,39.45
2017-04-10T08:55:44.119Z,40.12
2017-04-10T08:56:43.819Z,40.51
2017-04-10T08:57:44.126Z,40.22
2017-04-10T08:58:44.128Z,40.03
2017-04-10T08:59:44.130Z,40.49
2017-04-10T09:00:44.382Z,40.97
2017-04-10T09:01:44.168Z,41.07
2017-04-10T09:02:44.135Z,41.07
2017-04-10T09:03:44.144Z,41.27
2017-04-10T09:04:44.143Z,41.36
2017-04-10T09:05:44.138Z,41.36
2017-04-10T09:06:44.143Z,41.46
2017-04-10T09:07:44.143Z,41.65
2017-04-10T09:08:44.147Z,42.8
2017-04-10T09:09:44.147Z,43
2017-04-10T09:10:44.397Z,42.23
2017-04-10T09:11:43.847Z,42.8
2017-04-10T09:12:44.151Z,42.32
2017-04-10T09:13:44.152Z,42.8
2017-04-10T09:14:44.153Z,42.8
2017-04-10T09:15:44.505Z,42.8
2017-04-10T09:16:43.854Z,42.8
2017-04-10T09:17:44.156Z,42.32
2017-04-10T09:18:44.159Z,41.82
2017-04-10T09:19:44.160Z,42.02
2017-04-10T09:20:44.410Z,42.02
2017-04-10T09:21:44.161Z,42.3
2017-04-10T09:22:43.857Z,43.17
2017-04-10T09:23:44.166Z,42.02
2017-04-10T09:24:44.164Z,42.4
2017-04-10T09:25:44.458Z,42.4
2017-04-10T09:26:44.168Z,42.3
2017-04-10T09:27:43.862Z,42.4
2017-04-10T09:28:44.168Z,42.59
2017-04-10T09:29:44.172Z,42.69
2017-04-10T09:30:44.418Z,41.44
2017-04-10T09:31:44.170Z,41.44
2017-04-10T09:32:44.170Z,41.92
2017-04-10T09:33:44.171Z,42.4
2017-04-10T09:34:44.172Z,42.4
2017-04-10T09:35:44.428Z,41.92
2017-04-10T09:36:44.172Z,42.03
2017-04-10T09:37:44.173Z,42.02
2017-04-10T09:38:44.177Z,42.3
2017-04-10T09:39:44.176Z,42.8
2017-04-10T09:40:44.476Z,42.69
2017-04-10T09:41:44.173Z,42.23
2017-04-10T09:42:43.874Z,41.07
2017-04-10T09:43:44.177Z,41.46
2017-04-10T09:44:44.177Z,41.46
2017-04-10T09:45:44.428Z,41.55
2017-04-10T09:46:43.880Z,41.36
2017-04-10T09:47:44.180Z,41.27
2017-04-10T09:48:44.179Z,40.88
2017-04-10T09:49:44.181Z,41.55
2017-04-10T09:50:44.532Z,41.27
2017-04-10T09:51:44.180Z,40.97
2017-04-10T09:52:43.877Z,41.17
2017-04-10T09:53:44.181Z,40.78
2017-04-10T09:54:43.879Z,41.17
2017-04-10T09:55:44.438Z,40.78
2017-04-10T09:56:44.184Z,41.17
2017-04-10T09:57:43.880Z,40.49
2017-04-10T09:58:44.191Z,40.49
2017-04-10T09:59:44.186Z,40.01
2017-04-10T10:00:44.485Z,40.2
2017-04-10T10:01:43.883Z,40.22
2017-04-10T10:02:43.884Z,40.12
2017-04-10T10:03:43.884Z,39.94
2017-04-10T10:04:44.190Z,40.32
2017-04-10T10:05:44.475Z,38.97
2017-04-10T10:06:44.191Z,39.54
2017-04-10T10:07:43.886Z,39.36
2017-04-10T10:08:43.890Z,38.78
2017-04-10T10:09:44.192Z,39.36
2017-04-10T10:10:44.492Z,39.26
2017-04-10T10:11:43.889Z,38.87
2017-04-10T10:12:43.890Z,38.68
2017-04-10T10:13:44.193Z,38.58
2017-04-10T10:14:43.893Z,38.39
2017-04-10T10:15:44.142Z,38.49
2017-04-10T10:16:44.197Z,39.06
2017-04-10T10:17:43.892Z,39.26
2017-04-10T10:18:43.893Z,39.16
2017-04-10T10:19:43.894Z,38.58
2017-04-10T10:20:44.450Z,38.79
2017-04-10T10:21:44.240Z,38.31
2017-04-10T10:22:43.898Z,38.89
2017-04-10T10:23:43.898Z,38.02
2017-04-10T10:24:44.203Z,38.02
2017-04-10T10:25:44.503Z,38.02
2017-04-10T10:26:43.900Z,37.83
2017-04-10T10:27:43.902Z,37.83
2017-04-10T10:28:44.206Z,37.45
2017-04-10T10:29:43.902Z,37.83
2017-04-10T10:30:44.459Z,38.02
2017-04-10T10:31:43.905Z,37.63
2017-04-10T10:32:43.905Z,37.35
2017-04-10T10:33:43.906Z,37.54
2017-04-10T10:34:43.909Z,37.75
2017-04-10T10:35:43.909Z,37.73
2017-04-10T10:36:43.909Z,37.75
2017-04-10T10:37:44.214Z,37.56
2017-04-10T10:38:43.911Z,37.46
2017-04-10T10:39:44.214Z,37.46
2017-04-10T10:40:43.915Z,37.17
2017-04-10T10:41:43.915Z,37.46
2017-04-10T10:42:44.219Z,37.17
2017-04-10T10:43:44.219Z,36.98
2017-04-10T10:44:43.919Z,37.1
2017-04-10T10:45:43.926Z,37.1
2017-04-10T10:46:43.920Z,35.94
2017-04-10T10:47:44.224Z,36.13
2017-04-10T10:48:44.226Z,36.61
2017-04-10T10:49:44.228Z,36.9
2017-04-10T10:50:43.927Z,37.3
2017-04-10T10:51:43.928Z,37.21
2017-04-10T10:52:44.232Z,35.57
2017-04-10T10:53:43.930Z,35.76
2017-04-10T10:54:44.238Z,34.99
2017-04-10T10:55:44.241Z,34.62
2017-04-10T10:56:44.244Z,34.13
2017-04-10T10:57:43.937Z,33.94
2017-04-10T10:58:44.260Z,34.52
2017-04-10T10:59:43.940Z,35
2017-04-10T11:00:44.247Z,35.1
2017-04-10T11:01:43.945Z,34.81
2017-04-10T11:02:44.249Z,34.92
2017-04-10T11:03:44.272Z,34.83
2017-04-10T11:04:44.255Z,34.25
2017-04-10T11:05:44.256Z,33.76
2017-04-10T11:06:44.259Z,33.28
2017-04-10T11:07:43.958Z,34.15
2017-04-10T11:08:43.959Z,33.47
2017-04-10T11:09:43.962Z,33.18
2017-04-10T11:10:44.269Z,33.18
2017-04-10T11:11:44.273Z,33.86
2017-04-10T11:12:44.273Z,33.28
2017-04-10T11:13:44.277Z,33.09
2017-04-10T11:14:44.528Z,32.89
2017-04-10T11:15:44.280Z,32.79
2017-04-10T11:16:43.980Z,32.79
2017-04-10T11:17:44.286Z,32.21
2017-04-10T11:18:44.289Z,32.21
2017-04-10T11:19:44.593Z,32.31
2017-04-10T11:20:44.293Z,32.12
2017-04-10T11:21:44.297Z,32.04
2017-04-10T11:22:43.997Z,32.31
2017-04-10T11:23:44.000Z,32.12
2017-04-10T11:24:44.604Z,32.71
2017-04-10T11:25:44.311Z,32.31
2017-04-10T11:26:44.310Z,32.7
2017-04-10T11:27:44.010Z,32.12
2017-04-10T11:28:44.317Z,32.02
2017-04-10T11:29:44.575Z,32.79
2017-04-10T11:30:44.322Z,32.7
2017-04-10T11:31:44.326Z,32.89
2017-04-10T11:32:44.025Z,32.91
2017-04-10T11:33:44.331Z,33.01
2017-04-10T11:34:44.584Z,33.39
2017-04-10T11:35:44.336Z,33.59
2017-04-10T11:36:44.341Z,33.39
2017-04-10T11:37:44.343Z,33.57
2017-04-10T11:38:44.346Z,33.59
2017-04-10T11:39:44.598Z,33.97
2017-04-10T11:40:44.353Z,33.28
2017-04-10T11:41:44.354Z,33.37
2017-04-10T11:42:44.357Z,34.15
2017-04-10T11:43:44.359Z,34.63
2017-04-10T11:44:44.615Z,34.83
2017-04-10T11:45:44.366Z,34.62
2017-04-10T11:46:44.371Z,35.41
2017-04-10T11:47:44.371Z,35.97
2017-04-10T11:48:44.374Z,35.95
2017-04-10T11:49:44.627Z,36.92
2017-04-10T11:50:44.384Z,37.02
2017-04-10T11:51:44.382Z,37.02
2017-04-10T11:52:44.384Z,37.29
2017-04-10T11:53:44.390Z,37.38
2017-04-10T11:54:44.692Z,38.06
2017-04-10T11:55:44.394Z,38.25
2017-04-10T11:56:44.394Z,38.53
2017-04-10T11:57:44.429Z,38.71
2017-04-10T11:58:44.399Z,39.01
2017-04-10T11:59:44.657Z,38.71
2017-04-10T12:00:44.410Z,38.71
2017-04-10T12:01:44.405Z,39.39
2017-04-10T12:02:44.408Z,39.39
2017-04-10T12:03:44.409Z,39.11
2017-04-10T12:04:44.711Z,39.2
2017-04-10T12:05:44.413Z,39.49
2017-04-10T12:06:44.416Z,38.91
2017-04-10T12:07:44.417Z,39.11
2017-04-10T12:08:44.427Z,40.07
2017-04-10T12:09:44.672Z,40.07
2017-04-10T12:10:44.455Z,40.07
2017-04-10T12:11:44.430Z,39.78
2017-04-10T12:12:44.426Z,39.76
2017-04-10T12:13:44.429Z,40.05
2017-04-10T12:14:44.781Z,39.86
2017-04-10T12:15:44.431Z,39.95
2017-04-10T12:16:44.432Z,40.05
2017-04-10T12:17:44.435Z,39.37
2017-04-10T12:18:44.435Z,39.37
2017-04-10T12:19:44.687Z,39.18
2017-04-10T12:20:44.439Z,38.99
2017-04-10T12:21:44.440Z,39.18
2017-04-10T12:22:44.441Z,39.18
2017-04-10T12:23:44.443Z,39.18
2017-04-10T12:24:44.746Z,38.89
2017-04-10T12:25:44.445Z,38.6
2017-04-10T12:26:44.471Z,38.41
2017-04-10T12:27:44.449Z,38.31
2017-04-10T12:28:44.447Z,38.79
2017-04-10T12:29:44.702Z,38.89
2017-04-10T12:30:44.451Z,39.09
2017-04-10T12:31:44.452Z,38.41
2017-04-10T12:32:44.452Z,38.41
2017-04-10T12:33:44.456Z,38.21
2017-04-10T12:34:44.706Z,38.31
2017-04-10T12:35:44.457Z,38.31
2017-04-10T12:36:44.457Z,38.51
2017-04-10T12:37:44.461Z,38.7
2017-04-10T12:38:44.460Z,38.89
2017-04-10T12:39:44.761Z,38.99
2017-04-10T12:40:44.462Z,38.79
2017-04-10T12:41:44.464Z,38.99
2017-04-10T12:42:44.466Z,39.18
2017-04-10T12:43:44.826Z,38.7
2017-04-10T12:44:44.821Z,38.79
2017-04-10T12:45:44.471Z,39.09
2017-04-10T12:46:44.471Z,38.89
2017-04-10T12:47:44.473Z,39.45
2017-04-10T12:48:44.471Z,39.64
2017-04-10T12:49:44.775Z,40.03
2017-04-10T12:50:44.474Z,39.84
2017-04-10T12:51:44.171Z,40.2
2017-04-10T12:52:44.477Z,40.11
2017-04-10T12:53:44.481Z,39.91
2017-04-10T12:54:44.829Z,40.11
2017-04-10T12:55:44.481Z,39.94
2017-04-10T12:56:44.481Z,40.12
2017-04-10T12:57:44.482Z,39.94